Time;durP1;ratioP1;P1;durP2;ratioP2;P2;SDS_P1;SDS_P2;PMS_P1;PMS_P2;Temp;Humidity;BMP_temperature;BMP_pressure;BME280_temperature;BME280_humidity;BME280_pressure;Samples;Min_cycle;Max_cycle;Signal;HPM_P1;HPM_P2
2021/04/12 00:00:27;;;;;;;6.83;5.70;;;7.50;99.90;;;;;;4983419;28;20444;-68
2021/04/12 00:03:03;;;;;;;5.33;4.33;;;7.40;99.90;;;;;;4977031;28;20457;-69
2021/04/12 00:06:00;;;;;;;8.23;5.67;;;7.40;99.90;;;;;;4978815;28;20511;-68
2021/04/12 00:08:49;;;;;;;5.50;4.97;;;7.50;99.90;;;;;;4979548;28;20530;-69
2021/04/12 00:12:02;;;;;;;5.50;5.00;;;7.50;99.90;;;;;;4971151;28;21046;-69
2021/04/12 00:14:58;;;;;;;5.40;4.83;;;7.40;99.90;;;;;;4963768;28;21206;-69
2021/04/12 00:17:38;;;;;;;5.93;5.03;;;7.40;99.90;;;;;;4980462;28;20440;-72
2021/04/12 00:20:31;;;;;;;6.50;5.17;;;7.40;99.90;;;;;;4981748;28;20435;-69
2021/04/12 00:23:03;;;;;;;5.60;5.03;;;7.40;99.90;;;;;;4973387;28;20783;-69
2021/04/12 00:25:48;;;;;;;5.30;4.70;;;7.30;99.90;;;;;;4979664;28;20509;-72
2021/04/12 00:28:30;;;;;;;5.60;5.10;;;7.30;99.90;;;;;;4980370;28;20479;-70
2021/04/12 00:31:23;;;;;;;6.00;5.27;;;7.30;99.90;;;;;;4977278;28;21093;-72
2021/04/12 00:34:02;;;;;;;5.10;4.60;;;7.30;99.90;;;;;;4974275;28;20539;-70
2021/04/12 00:36:50;;;;;;;5.93;4.73;;;7.40;99.90;;;;;;4981863;28;20417;-70
2021/04/12 00:39:31;;;;;;;4.97;4.57;;;7.30;99.90;;;;;;4978809;28;20425;-70
2021/04/12 00:42:19;;;;;;;6.43;4.80;;;7.30;99.90;;;;;;4980949;28;20547;-69
2021/04/12 00:44:51;;;;;;;5.97;5.07;;;7.30;99.90;;;;;;4972780;28;20445;-69
2021/04/12 00:47:42;;;;;;;6.27;5.23;;;7.30;99.90;;;;;;4980978;28;20421;-71
2021/04/12 00:50:37;;;;;;;6.63;5.20;;;7.20;99.90;;;;;;4983885;28;20435;-71
2021/04/12 00:53:24;;;;;;;4.93;4.43;;;7.10;99.90;;;;;;4981424;28;20456;-70
2021/04/12 00:56:00;;;;;;;5.10;4.60;;;7.10;99.90;;;;;;4978123;28;20425;-71
2021/04/12 00:58:53;;;;;;;5.10;4.60;;;7.00;99.90;;;;;;4969600;28;20983;-69
2021/04/12 01:01:19;;;;;;;5.97;5.40;;;7.00;99.90;;;;;;4981685;28;20548;-70
2021/04/12 01:04:11;;;;;;;5.23;4.30;;;7.00;99.90;;;;;;4979260;28;20536;-69
2021/04/12 01:06:58;;;;;;;5.10;4.57;;;7.00;99.90;;;;;;4977741;28;20205;-70
2021/04/12 01:09:30;;;;;;;6.07;5.10;;;7.00;99.90;;;;;;4982268;28;20496;-71
2021/04/12 01:12:33;;;;;;;5.07;4.47;;;7.00;99.90;;;;;;4977160;28;20452;-70
2021/04/12 01:15:55;;;;;;;7.10;4.57;;;7.00;99.90;;;;;;4983833;28;21042;-70
2021/04/12 01:18:41;;;;;;;4.87;4.40;;;7.00;99.90;;;;;;4900891;29;20488;-71
2021/04/12 01:21:39;;;;;;;5.77;4.80;;;6.90;99.90;;;;;;4902697;29;20519;-69
2021/04/12 01:24:34;;;;;;;5.80;4.40;;;6.90;99.90;;;;;;4949511;28;20429;-69
2021/04/12 01:27:14;;;;;;;6.73;4.33;;;7.00;99.90;;;;;;4955464;28;20453;-69
2021/04/12 01:29:58;;;;;;;4.80;4.30;;;7.00;99.90;;;;;;4981654;28;20433;-69
2021/04/12 01:33:07;;;;;;;7.43;4.93;;;6.90;99.90;;;;;;4982726;28;20491;-69
2021/04/12 01:35:57;;;;;;;4.70;4.17;;;6.90;99.90;;;;;;4983716;28;20473;-71
2021/04/12 01:38:34;;;;;;;7.03;4.40;;;6.90;99.90;;;;;;4970379;28;21081;-72
2021/04/12 01:41:28;;;;;;;6.53;4.27;;;6.80;99.90;;;;;;4978913;28;22203;-70
2021/04/12 01:44:06;;;;;;;4.60;4.10;;;6.80;99.90;;;;;;4980539;28;20430;-70
2021/04/12 01:47:10;;;;;;;7.57;4.50;;;6.80;99.90;;;;;;4983023;28;20433;-70
2021/04/12 01:49:59;;;;;;;5.50;5.00;;;6.70;99.90;;;;;;4965173;28;20499;-71
2021/04/12 01:53:04;;;;;;;4.60;4.20;;;6.70;99.90;;;;;;4972197;28;20544;-70
2021/04/12 01:55:51;;;;;;;4.80;4.40;;;6.70;99.90;;;;;;4966317;28;20559;-70
2021/04/12 01:58:25;;;;;;;4.63;4.10;;;6.70;99.90;;;;;;4978909;28;20440;-71
2021/04/12 02:00:59;;;;;;;5.80;4.97;;;6.80;99.90;;;;;;4981132;28;20467;-70
2021/04/12 02:04:04;;;;;;;5.83;5.23;;;6.70;99.90;;;;;;4979066;28;20591;-70
2021/04/12 02:06:36;;;;;;;5.23;4.77;;;6.70;99.90;;;;;;4970119;28;20448;-70
2021/04/12 02:09:10;;;;;;;5.30;4.70;;;6.70;99.90;;;;;;4980883;28;20674;-71
2021/04/12 02:12:02;;;;;;;7.00;5.20;;;6.70;99.90;;;;;;4981385;28;20449;-70
2021/04/12 02:14:55;;;;;;;6.97;5.30;;;6.70;99.90;;;;;;4981634;28;20444;-71
2021/04/12 02:17:44;;;;;;;6.07;5.47;;;6.70;99.90;;;;;;4981680;28;20451;-71
2021/04/12 02:20:27;;;;;;;8.87;5.93;;;6.60;99.90;;;;;;4971896;28;20476;-71
2021/04/12 02:23:20;;;;;;;7.00;6.10;;;6.60;99.90;;;;;;4981433;28;20453;-70
2021/04/12 02:26:05;;;;;;;8.67;6.60;;;6.60;99.90;;;;;;4979755;28;20440;-69
2021/04/12 02:28:58;;;;;;;10.10;5.90;;;6.60;99.90;;;;;;4980120;28;20424;-69
2021/04/12 02:31:46;;;;;;;6.07;5.43;;;6.50;99.90;;;;;;4977450;28;20421;-70
2021/04/12 02:34:36;;;;;;;6.93;6.03;;;6.40;99.90;;;;;;4976662;28;20463;-71
2021/04/12 02:37:39;;;;;;;10.07;6.67;;;6.40;99.90;;;;;;4980009;28;21121;-69
2021/04/12 02:40:30;;;;;;;8.53;5.30;;;6.40;99.90;;;;;;4982497;28;20421;-70
2021/04/12 02:43:14;;;;;;;10.57;6.30;;;6.40;99.90;;;;;;4978886;28;20485;-71
2021/04/12 02:46:02;;;;;;;11.70;7.00;;;6.40;99.90;;;;;;4976417;28;20499;-70
2021/04/12 02:48:50;;;;;;;6.07;5.20;;;6.40;99.90;;;;;;4981621;28;20425;-69
2021/04/12 02:51:35;;;;;;;9.07;6.30;;;6.30;99.90;;;;;;4982372;28;20438;-68
2021/04/12 02:54:17;;;;;;;8.77;5.80;;;6.30;99.90;;;;;;4982009;28;20813;-70
2021/04/12 02:56:55;;;;;;;10.60;5.50;;;6.30;99.90;;;;;;4986969;28;20425;-72
2021/04/12 02:59:29;;;;;;;7.87;5.77;;;6.20;99.90;;;;;;4983081;28;20543;-68
2021/04/12 03:02:25;;;;;;;6.10;4.63;;;6.20;99.90;;;;;;4981443;28;21332;-70
2021/04/12 03:05:17;;;;;;;9.20;6.03;;;6.20;99.90;;;;;;4981893;28;20444;-69
2021/04/12 03:08:03;;;;;;;6.50;5.00;;;6.20;99.90;;;;;;4980692;28;20441;-71
2021/04/12 03:11:04;;;;;;;6.40;5.00;;;6.10;99.90;;;;;;4983504;28;20432;-70
2021/04/12 03:14:09;;;;;;;7.53;4.93;;;6.10;99.90;;;;;;4977309;28;20978;-71
2021/04/12 03:17:14;;;;;;;6.33;4.77;;;6.10;99.90;;;;;;4982312;28;20822;-71
2021/04/12 03:19:55;;;;;;;4.83;4.30;;;6.10;99.90;;;;;;4987123;28;21166;-70
2021/04/12 03:22:58;;;;;;;9.67;4.30;;;6.00;99.90;;;;;;4980719;28;20811;-71
2021/04/12 03:25:55;;;;;;;5.23;4.73;;;6.10;99.90;;;;;;4976897;28;20965;-71
2021/04/12 03:28:27;;;;;;;4.43;4.03;;;6.00;99.90;;;;;;4980535;28;20513;-70
2021/04/12 03:31:02;;;;;;;7.30;3.80;;;6.00;99.90;;;;;;4975976;28;21107;-71
2021/04/12 03:34:05;;;;;;;5.07;4.57;;;6.00;99.90;;;;;;4976676;28;20449;-70
2021/04/12 03:36:52;;;;;;;4.80;4.10;;;5.90;99.90;;;;;;4944021;28;20531;-69
2021/04/12 03:39:25;;;;;;;4.73;4.23;;;6.00;99.90;;;;;;4982671;28;20437;-67
2021/04/12 03:42:33;;;;;;;4.80;4.30;;;6.00;99.90;;;;;;4980546;28;20797;-70
2021/04/12 03:45:17;;;;;;;6.63;4.97;;;6.00;99.90;;;;;;4977817;28;20507;-71
2021/04/12 03:48:04;;;;;;;5.83;4.10;;;6.00;99.90;;;;;;4985485;28;20429;-70
2021/04/12 03:51:13;;;;;;;3.90;3.60;;;6.00;99.90;;;;;;4997439;28;21236;-71
2021/04/12 03:53:54;;;;;;;4.87;4.37;;;6.00;99.90;;;;;;4978777;28;20476;-70
2021/04/12 03:56:50;;;;;;;5.43;4.17;;;6.10;99.90;;;;;;4982526;28;20439;-70
2021/04/12 03:59:23;;;;;;;4.77;4.10;;;6.00;99.90;;;;;;4973696;28;20452;-70
2021/04/12 04:02:11;;;;;;;6.20;4.80;;;6.00;99.90;;;;;;4982836;28;20463;-70
2021/04/12 04:04:56;;;;;;;6.27;5.00;;;6.10;99.90;;;;;;4983622;28;20441;-69
2021/04/12 04:07:59;;;;;;;6.10;4.90;;;6.10;99.90;;;;;;4984948;28;20424;-71
2021/04/12 04:11:01;;;;;;;6.50;5.27;;;6.10;99.90;;;;;;4990892;28;20433;-69
2021/04/12 04:14:04;;;;;;;7.70;5.20;;;6.10;99.90;;;;;;4985873;28;20563;-69
2021/04/12 04:16:57;;;;;;;8.03;5.60;;;6.10;99.90;;;;;;4982839;28;21070;-68
2021/04/12 04:19:47;;;;;;;7.53;5.40;;;6.20;99.90;;;;;;4979268;28;21097;-69
2021/04/12 04:22:34;;;;;;;7.30;5.67;;;6.20;99.90;;;;;;4983315;28;20501;-69
2021/04/12 04:25:10;;;;;;;4.33;3.93;;;6.20;99.90;;;;;;4976431;28;20534;-70
2021/04/12 04:27:53;;;;;;;5.40;4.83;;;6.20;99.90;;;;;;4977667;28;20466;-70
2021/04/12 04:30:44;;;;;;;7.83;5.30;;;6.20;99.90;;;;;;4988271;28;20416;-70
2021/04/12 04:33:16;;;;;;;5.70;4.60;;;6.20;99.90;;;;;;4984206;28;20497;-70
2021/04/12 04:35:54;;;;;;;7.70;5.33;;;6.30;99.90;;;;;;4981754;28;21034;-70
2021/04/12 04:38:47;;;;;;;5.80;4.90;;;6.30;99.90;;;;;;4986127;28;20817;-72
2021/04/12 04:41:23;;;;;;;4.87;4.37;;;6.30;99.90;;;;;;4990324;28;20462;-70
2021/04/12 04:44:19;;;;;;;6.23;5.17;;;6.40;99.90;;;;;;4990701;28;20520;-71
2021/04/12 04:47:16;;;;;;;8.50;5.10;;;6.40;99.90;;;;;;4990196;28;20420;-70
2021/04/12 04:49:59;;;;;;;5.63;5.07;;;6.40;99.90;;;;;;4979015;28;20447;-70
2021/04/12 04:52:27;;;;;;;7.83;5.60;;;6.50;99.90;;;;;;4993074;28;20435;-69
2021/04/12 04:55:21;;;;;;;7.60;5.33;;;6.40;99.90;;;;;;4989440;28;20806;-70
2021/04/12 04:58:23;;;;;;;6.60;5.10;;;6.40;99.90;;;;;;4991755;28;20420;-70
2021/04/12 05:01:03;;;;;;;5.10;4.60;;;6.40;99.90;;;;;;4979768;28;20483;-70
2021/04/12 05:04:05;;;;;;;7.60;5.67;;;6.30;99.90;;;;;;4982482;28;20434;-71
2021/04/12 05:06:55;;;;;;;6.10;5.00;;;6.30;99.90;;;;;;4982013;28;20440;-70
2021/04/12 05:09:40;;;;;;;5.30;4.83;;;6.20;99.90;;;;;;4994811;28;20400;-70
2021/04/12 05:12:34;;;;;;;7.20;5.00;;;6.20;99.90;;;;;;4986500;28;20457;-69
2021/04/12 05:15:21;;;;;;;5.77;5.10;;;6.20;99.90;;;;;;4983934;28;21022;-70
2021/04/12 05:18:08;;;;;;;8.20;5.60;;;6.20;99.90;;;;;;4984405;28;20439;-73
2021/04/12 05:21:12;;;;;;;6.07;5.13;;;6.20;99.90;;;;;;4983743;28;20447;-68
2021/04/12 05:23:59;;;;;;;7.10;5.93;;;6.20;99.90;;;;;;4966615;28;20434;-70
2021/04/12 05:26:39;;;;;;;6.90;6.03;;;6.20;99.90;;;;;;4987294;28;20609;-69
2021/04/12 05:29:10;;;;;;;5.43;4.87;;;6.20;99.90;;;;;;4994666;28;20922;-70
2021/04/12 05:32:03;;;;;;;9.87;5.77;;;6.10;99.90;;;;;;4991524;28;20451;-70
2021/04/12 05:35:10;;;;;;;5.83;4.87;;;6.00;99.90;;;;;;4984282;28;20893;-71
2021/04/12 05:37:46;;;;;;;5.30;4.80;;;5.90;99.90;;;;;;4913483;29;20511;-70
2021/04/12 05:40:11;;;;;;;6.60;4.93;;;5.90;99.90;;;;;;4984699;28;20425;-69
2021/04/12 05:43:08;;;;;;;6.57;5.90;;;5.70;99.90;;;;;;4993272;28;20481;-71
2021/04/12 05:45:39;;;;;;;6.90;5.30;;;5.50;99.90;;;;;;4989266;28;20232;-70
2021/04/12 05:48:17;;;;;;;8.13;6.17;;;5.50;99.90;;;;;;4974580;28;20969;-70
2021/04/12 05:51:05;;;;;;;9.13;5.80;;;5.60;99.90;;;;;;4985991;28;20832;-70
2021/04/12 05:54:09;;;;;;;8.43;6.57;;;5.60;99.90;;;;;;4991660;28;20978;-70
2021/04/12 05:57:12;;;;;;;7.50;5.77;;;5.60;99.90;;;;;;4993737;28;20455;-71
2021/04/12 06:00:13;;;;;;;6.83;5.57;;;5.60;99.90;;;;;;4995524;28;20435;-70
2021/04/12 06:03:16;;;;;;;9.33;6.53;;;5.60;99.90;;;;;;4972628;28;20488;-69
2021/04/12 06:06:30;;;;;;;10.70;7.43;;;5.60;99.90;;;;;;4993250;28;20975;-71
2021/04/12 06:09:02;;;;;;;11.53;6.90;;;5.70;99.90;;;;;;4989478;28;20428;-71
2021/04/12 06:11:49;;;;;;;8.70;7.40;;;5.70;99.90;;;;;;4991866;28;20845;-69
2021/04/12 06:14:43;;;;;;;9.10;7.10;;;5.80;99.90;;;;;;4983525;28;20477;-69
2021/04/12 06:17:42;;;;;;;14.67;7.80;;;5.70;99.90;;;;;;4995674;28;20433;-71
2021/04/12 06:20:10;;;;;;;8.80;7.17;;;5.80;99.90;;;;;;4989895;28;20431;-71
2021/04/12 06:23:04;;;;;;;8.50;6.47;;;5.80;99.90;;;;;;4995459;28;20487;-69
2021/04/12 06:25:45;;;;;;;9.47;6.70;;;5.80;99.90;;;;;;4991799;28;20439;-69
2021/04/12 06:28:29;;;;;;;11.60;7.73;;;5.90;99.90;;;;;;4972505;28;20470;-70
2021/04/12 06:31:03;;;;;;;9.20;7.27;;;6.00;99.90;;;;;;4983378;28;20457;-74
2021/04/12 06:34:05;;;;;;;10.30;7.70;;;5.90;99.90;;;;;;4978118;28;20448;-67
2021/04/12 06:36:35;;;;;;;9.83;7.40;;;5.90;99.90;;;;;;4982487;28;20440;-70
2021/04/12 06:39:28;;;;;;;8.90;6.70;;;5.90;99.90;;;;;;4978092;28;20448;-69
2021/04/12 06:42:15;;;;;;;11.43;8.43;;;5.90;99.90;;;;;;4980845;28;20840;-71
2021/04/12 06:44:58;;;;;;;7.40;6.57;;;6.00;99.90;;;;;;4979021;28;20468;-70
2021/04/12 06:47:57;;;;;;;9.33;6.83;;;5.80;99.90;;;;;;4982723;28;20492;-71
2021/04/12 06:50:52;;;;;;;9.70;7.60;;;5.90;99.90;;;;;;4987419;28;20417;-70
2021/04/12 06:53:55;;;;;;;10.70;7.70;;;5.90;99.90;;;;;;4980699;28;20464;-71
2021/04/12 06:56:27;;;;;;;9.87;7.53;;;6.00;99.90;;;;;;4982498;28;20441;-70
2021/04/12 06:59:14;;;;;;;9.03;7.43;;;6.00;99.90;;;;;;4988606;28;20421;-70
2021/04/12 07:01:58;;;;;;;9.73;7.10;;;6.10;99.90;;;;;;4991955;28;20598;-72
2021/04/12 07:04:42;;;;;;;12.20;9.17;;;6.10;99.90;;;;;;4986951;28;20761;-69
2021/04/12 07:07:26;;;;;;;13.57;9.93;;;6.10;99.90;;;;;;4973796;28;21332;-70
2021/04/12 07:10:06;;;;;;;13.40;9.20;;;6.10;99.90;;;;;;4979107;28;20500;-70
2021/04/12 07:12:53;;;;;;;13.40;8.40;;;6.20;99.90;;;;;;4976644;28;20511;-70
2021/04/12 07:15:31;;;;;;;10.50;7.83;;;6.20;99.90;;;;;;4987758;28;20465;-70
2021/04/12 07:18:28;;;;;;;13.73;8.13;;;6.30;99.90;;;;;;4981308;28;20937;-71
2021/04/12 07:21:17;;;;;;;10.40;7.93;;;6.30;99.90;;;;;;4971734;28;20501;-71
2021/04/12 07:23:54;;;;;;;13.10;8.93;;;6.50;99.90;;;;;;4983888;28;20756;-70
2021/04/12 07:26:41;;;;;;;11.20;8.43;;;6.60;99.90;;;;;;4979957;28;20477;-72
2021/04/12 07:29:25;;;;;;;13.03;7.80;;;6.60;99.90;;;;;;4986476;28;20819;-72
2021/04/12 07:32:34;;;;;;;8.97;7.70;;;6.70;99.90;;;;;;4978816;28;20783;-70
2021/04/12 07:35:23;;;;;;;8.87;7.83;;;6.60;99.90;;;;;;4979854;28;20446;-70
2021/04/12 07:38:30;;;;;;;16.87;9.50;;;6.50;99.90;;;;;;4978764;28;20644;-72
2021/04/12 07:41:20;;;;;;;9.60;7.80;;;6.50;99.90;;;;;;4970179;28;20516;-70
2021/04/12 07:44:07;;;;;;;11.87;8.80;;;6.60;99.90;;;;;;4981938;28;20998;-71
2021/04/12 07:47:23;;;;;;;12.67;9.50;;;6.80;99.90;;;;;;4981341;28;20425;-71
2021/04/12 07:50:26;;;;;;;10.87;9.13;;;6.80;99.90;;;;;;4950319;28;20898;-72
2021/04/12 07:53:35;;;;;;;15.20;9.03;;;7.00;99.90;;;;;;4955547;28;20479;-71
2021/04/12 07:56:38;;;;;;;12.63;8.40;;;7.20;99.90;;;;;;4950082;28;20482;-70
2021/04/12 07:59:37;;;;;;;11.60;9.47;;;7.40;99.90;;;;;;4949869;28;20480;-71
2021/04/12 08:02:29;;;;;;;14.90;9.13;;;7.50;99.90;;;;;;4975288;28;21049;-71
2021/04/12 08:05:32;;;;;;;10.30;8.23;;;7.50;99.90;;;;;;4971831;28;20440;-72
2021/04/12 08:08:27;;;;;;;9.70;8.00;;;7.60;99.90;;;;;;4979538;28;20428;-70
2021/04/12 08:11:15;;;;;;;14.67;8.93;;;7.70;99.90;;;;;;4975418;28;20499;-72
2021/04/12 08:14:29;;;;;;;12.87;9.77;;;7.80;99.90;;;;;;4970292;28;20504;-71
2021/04/12 08:17:31;;;;;;;16.40;9.47;;;8.00;99.90;;;;;;4966029;28;20879;-71
2021/04/12 08:20:28;;;;;;;11.33;8.70;;;8.00;99.90;;;;;;4969508;28;20690;-72
2021/04/12 08:23:31;;;;;;;11.33;8.37;;;8.10;99.90;;;;;;4975677;28;20904;-70
2021/04/12 08:26:24;;;;;;;10.13;7.83;;;8.20;99.90;;;;;;4968330;28;21010;-71
2021/04/12 08:29:15;;;;;;;7.90;7.10;;;8.30;99.90;;;;;;4978328;28;20431;-71
2021/04/12 08:32:12;;;;;;;6.53;5.60;;;8.30;99.90;;;;;;4981725;28;20753;-71
2021/04/12 08:34:49;;;;;;;7.83;5.70;;;8.20;99.90;;;;;;4974208;28;20905;-70
2021/04/12 08:37:52;;;;;;;8.37;5.97;;;8.30;99.90;;;;;;4971136;28;20459;-70
2021/04/12 08:40:39;;;;;;;9.43;5.73;;;8.50;99.90;;;;;;4976004;28;20935;-71
2021/04/12 08:43:34;;;;;;;14.27;5.97;;;8.60;99.90;;;;;;4978892;28;21284;-70
2021/04/12 08:46:29;;;;;;;5.30;4.30;;;8.90;99.90;;;;;;4981650;28;20950;-70
2021/04/12 08:49:31;;;;;;;5.20;4.67;;;9.10;99.90;;;;;;4969693;28;20587;-71
2021/04/12 08:52:10;;;;;;;7.53;4.90;;;9.50;99.90;;;;;;4979103;28;20443;-72
2021/04/12 08:54:47;;;;;;;5.30;4.50;;;10.50;99.90;;;;;;4982947;28;20786;-71
2021/04/12 08:57:31;;;;;;;4.63;4.23;;;11.30;99.90;;;;;;4971741;28;20537;-70
2021/04/12 09:00:32;;;;;;;6.40;5.63;;;11.90;99.90;;;;;;4965177;28;20456;-71
2021/04/12 09:03:20;;;;;;;4.70;4.30;;;12.80;99.90;;;;;;4975464;28;20993;-70
2021/04/12 09:06:14;;;;;;;5.70;4.20;;;13.30;99.90;;;;;;4980032;28;20934;-72
2021/04/12 09:09:01;;;;;;;5.23;4.73;;;13.80;99.90;;;;;;4978166;28;20453;-72
2021/04/12 09:11:53;;;;;;;5.60;4.50;;;14.80;98.60;;;;;;4981470;28;20942;-71
2021/04/12 09:14:22;;;;;;;5.13;4.73;;;14.80;91.50;;;;;;4976328;28;20448;-70
2021/04/12 09:17:15;;;;;;;7.07;4.20;;;14.30;89.40;;;;;;4978043;28;20512;-71
2021/04/12 09:19:46;;;;;;;4.00;3.60;;;14.50;79.60;;;;;;4980303;28;21019;-72
2021/04/12 09:22:49;;;;;;;3.67;3.47;;;14.40;72.10;;;;;;4979457;28;20536;-70
2021/04/12 09:25:52;;;;;;;4.50;3.33;;;13.60;71.20;;;;;;4972741;28;20448;-74
2021/04/12 09:28:31;;;;;;;4.80;4.40;;;15.60;77.20;;;;;;4974715;28;20459;-70
2021/04/12 09:31:23;;;;;;;4.20;3.80;;;19.10;68.80;;;;;;4981042;28;20413;-72
2021/04/12 09:34:07;;;;;;;4.53;4.13;;;20.60;55.00;;;;;;4983533;28;20424;-73
2021/04/12 09:36:54;;;;;;;4.30;4.00;;;18.40;51.50;;;;;;4971634;28;21054;-70
2021/04/12 09:39:45;;;;;;;4.03;3.63;;;16.60;53.10;;;;;;4982082;28;20443;-72
2021/04/12 09:42:42;;;;;;;4.70;4.30;;;15.40;54.90;;;;;;4984678;28;20774;-71
2021/04/12 09:45:33;;;;;;;4.70;4.23;;;15.00;57.60;;;;;;4986528;28;20894;-71
2021/04/12 09:48:31;;;;;;;4.87;4.40;;;17.20;54.20;;;;;;4985106;28;20940;-70
2021/04/12 09:51:53;;;;;;;4.50;4.10;;;18.00;52.50;;;;;;4953709;28;20561;-72
2021/04/12 09:54:28;;;;;;;5.37;4.13;;;19.60;52.60;;;;;;4915717;29;20456;-73
2021/04/12 09:57:31;;;;;;;4.00;3.70;;;20.50;48.70;;;;;;4916648;29;20549;-73
2021/04/12 10:00:33;;;;;;;4.20;3.97;;;21.10;46.90;;;;;;4972859;28;20463;-72
2021/04/12 10:03:34;;;;;;;6.73;3.90;;;21.20;42.70;;;;;;4977421;28;20469;-71
2021/04/12 10:06:14;;;;;;;5.77;3.37;;;20.10;43.20;;;;;;4986013;28;20520;-71
2021/04/12 10:08:50;;;;;;;3.37;3.17;;;20.70;41.10;;;;;;4972142;28;20446;-72
2021/04/12 10:11:20;;;;;;;3.30;3.10;;;21.50;40.50;;;;;;4985340;28;20507;-71
2021/04/12 10:14:19;;;;;;;4.90;4.20;;;22.30;39.80;;;;;;4974089;28;21326;-72
2021/04/12 10:17:00;;;;;;;4.33;4.00;;;21.90;39.50;;;;;;4978076;28;20436;-70
2021/04/12 10:19:34;;;;;;;4.40;4.00;;;20.50;39.90;;;;;;4979657;28;20440;-71
2021/04/12 10:22:10;;;;;;;4.30;4.00;;;19.00;40.40;;;;;;4983589;28;20472;-72
2021/04/12 10:24:56;;;;;;;4.30;3.90;;;17.40;39.80;;;;;;4982280;28;20447;-72
2021/04/12 10:27:36;;;;;;;4.23;3.90;;;15.60;41.70;;;;;;4978397;28;20461;-72
2021/04/12 10:30:13;;;;;;;4.03;3.70;;;14.80;44.10;;;;;;4993077;28;20511;-71
2021/04/12 10:32:56;;;;;;;4.67;4.27;;;14.60;45.00;;;;;;4978855;28;20508;-72
2021/04/12 10:35:33;;;;;;;4.63;3.97;;;15.80;45.20;;;;;;4980185;28;20425;-71
2021/04/12 10:38:18;;;;;;;4.37;4.07;;;16.70;44.80;;;;;;4976481;28;20532;-72
2021/04/12 10:40:45;;;;;;;4.17;3.90;;;16.00;43.90;;;;;;4961286;28;20986;-70
2021/04/12 10:43:19;;;;;;;9.73;4.13;;;15.20;43.10;;;;;;4977846;28;20456;-72
2021/04/12 10:45:51;;;;;;;5.40;4.33;;;14.90;43.30;;;;;;4975791;28;20440;-70
2021/04/12 10:48:20;;;;;;;3.80;3.60;;;15.30;44.70;;;;;;4977726;28;20527;-72
2021/04/12 10:51:32;;;;;;;4.10;3.80;;;15.60;44.50;;;;;;4979556;28;20489;-71
2021/04/12 10:54:14;;;;;;;4.10;3.83;;;15.60;44.00;;;;;;4976936;28;20995;-72
2021/04/12 10:56:53;;;;;;;5.87;3.77;;;15.50;42.90;;;;;;4976925;28;20432;-71
2021/04/12 10:59:49;;;;;;;4.90;4.50;;;15.50;43.70;;;;;;4971575;28;20467;-72
2021/04/12 11:02:27;;;;;;;3.90;3.50;;;15.30;43.80;;;;;;4980315;28;20538;-72
2021/04/12 11:04:53;;;;;;;4.27;3.87;;;15.00;44.00;;;;;;4975094;28;20363;-69
2021/04/12 11:07:39;;;;;;;6.00;3.60;;;14.70;44.00;;;;;;4974077;28;21285;-70
2021/04/12 11:10:11;;;;;;;4.27;3.97;;;14.30;45.10;;;;;;4981471;28;20313;-73
2021/04/12 11:12:56;;;;;;;4.00;3.70;;;13.80;46.70;;;;;;4979706;28;20466;-73
2021/04/12 11:15:40;;;;;;;4.70;4.30;;;13.50;48.40;;;;;;4984818;28;20441;-73
2021/04/12 11:18:32;;;;;;;4.57;4.20;;;13.30;48.60;;;;;;4965996;28;20458;-71
2021/04/12 11:21:11;;;;;;;3.93;3.63;;;13.00;49.30;;;;;;4981569;28;20523;-72
2021/04/12 11:23:46;;;;;;;4.30;3.70;;;12.90;49.80;;;;;;4975166;28;21379;-70
2021/04/12 11:26:25;;;;;;;4.47;4.10;;;12.80;50.00;;;;;;4982819;28;20511;-73
2021/04/12 11:29:02;;;;;;;6.13;5.60;;;15.90;51.20;;;;;;4973552;28;20837;-71
2021/04/12 11:31:53;;;;;;;5.07;4.40;;;19.30;44.20;;;;;;4968430;28;20475;-71
2021/04/12 11:34:25;;;;;;;4.43;4.13;;;20.40;41.30;;;;;;4978717;28;21290;-71
2021/04/12 11:37:18;;;;;;;4.53;4.23;;;19.40;41.00;;;;;;4974670;28;20425;-72
2021/04/12 11:40:13;;;;;;;6.37;4.57;;;17.80;41.40;;;;;;4955162;28;20536;-72
2021/04/12 11:42:48;;;;;;;4.93;4.50;;;16.40;42.80;;;;;;4966845;28;20514;-70
2021/04/12 11:45:35;;;;;;;4.40;4.10;;;15.50;44.10;;;;;;4972002;28;20464;-72
2021/04/12 11:48:18;;;;;;;7.93;5.03;;;14.80;45.20;;;;;;4979113;28;21319;-71
2021/04/12 11:51:05;;;;;;;11.00;8.20;;;14.30;45.60;;;;;;4980948;28;20438;-74
2021/04/12 11:53:41;;;;;;;4.77;4.47;;;13.60;46.20;;;;;;4982439;28;20471;-72
2021/04/12 11:56:13;;;;;;;5.00;4.50;;;13.40;46.60;;;;;;4977567;28;20978;-72
2021/04/12 11:58:55;;;;;;;4.57;4.17;;;13.20;47.00;;;;;;4978770;28;20252;-70
2021/04/12 12:01:35;;;;;;;4.57;4.27;;;13.00;47.20;;;;;;4975702;28;20560;-71
2021/04/12 12:04:32;;;;;;;6.07;5.00;;;12.90;48.00;;;;;;4983182;28;20417;-72
2021/04/12 12:07:17;;;;;;;4.67;4.23;;;12.80;48.60;;;;;;4984214;28;21025;-71
2021/04/12 12:10:15;;;;;;;4.30;3.90;;;12.70;49.50;;;;;;4966654;28;21429;-71
2021/04/12 12:15:32;;;;;;;4.57;4.27;;;12.40;49.30;;;;;;4977210;23;20500;-71
2021/04/12 12:18:19;;;;;;;4.20;3.87;;;12.20;49.00;;;;;;5002498;28;20436;-73
2021/04/12 12:21:06;;;;;;;3.80;3.60;;;12.20;48.90;;;;;;5000524;28;20509;-71
2021/04/12 12:23:46;;;;;;;3.90;3.70;;;12.10;48.90;;;;;;4996981;28;20979;-70
2021/04/12 12:26:42;;;;;;;4.07;3.77;;;12.30;49.00;;;;;;4996071;28;20606;-71
2021/04/12 12:29:20;;;;;;;4.17;3.87;;;12.90;48.70;;;;;;4989853;28;20492;-70
2021/04/12 12:32:01;;;;;;;4.20;3.90;;;13.10;47.70;;;;;;4999629;28;20428;-73
2021/04/12 12:34:51;;;;;;;4.83;4.20;;;13.00;47.40;;;;;;4994437;28;20451;-72
2021/04/12 12:37:38;;;;;;;4.27;3.87;;;12.90;47.90;;;;;;4995482;28;20452;-69
2021/04/12 12:40:23;;;;;;;3.83;3.53;;;12.90;48.10;;;;;;5005445;28;20437;-73
2021/04/12 12:42:53;;;;;;;4.20;3.70;;;13.30;47.80;;;;;;4997298;28;20463;-71
2021/04/12 12:45:21;;;;;;;4.40;4.00;;;13.60;46.30;;;;;;5005676;28;20421;-72
2021/04/12 12:47:51;;;;;;;4.47;4.17;;;13.80;44.60;;;;;;4992862;28;20881;-70
2021/04/12 12:50:24;;;;;;;4.43;4.03;;;13.70;45.20;;;;;;4999054;28;20432;-73
2021/04/12 12:53:27;;;;;;;4.40;4.10;;;13.20;44.80;;;;;;4994473;28;20424;-73
2021/04/12 12:55:55;;;;;;;4.00;3.70;;;12.80;45.10;;;;;;4958248;28;20456;-71
2021/04/12 12:58:24;;;;;;;3.90;3.50;;;12.50;45.10;;;;;;4993332;28;20496;-72
2021/04/12 13:00:53;;;;;;;3.73;3.53;;;12.20;46.00;;;;;;4996655;28;20443;-73
2021/04/12 13:03:27;;;;;;;4.83;4.00;;;12.00;46.70;;;;;;5001972;28;20452;-71
2021/04/12 13:05:55;;;;;;;4.13;3.73;;;11.70;47.10;;;;;;5001206;28;20442;-72
2021/04/12 13:08:34;;;;;;;3.90;3.60;;;11.50;48.00;;;;;;4997750;28;20993;-69
2021/04/12 13:11:00;;;;;;;4.20;3.90;;;11.40;50.60;;;;;;4999910;28;20522;-71
2021/04/12 13:13:32;;;;;;;6.03;4.93;;;11.30;48.60;;;;;;4996292;28;20526;-70
2021/04/12 13:16:12;;;;;;;4.00;3.70;;;11.30;49.20;;;;;;5003320;28;20860;-71
2021/04/12 13:18:39;;;;;;;4.93;4.53;;;11.20;48.60;;;;;;5001057;28;20431;-70
2021/04/12 13:21:19;;;;;;;3.70;3.50;;;11.20;48.50;;;;;;4992508;28;20467;-71
2021/04/12 13:23:44;;;;;;;4.20;3.90;;;11.90;49.00;;;;;;5008793;28;20439;-70
2021/04/12 13:26:31;;;;;;;4.10;3.90;;;14.50;48.20;;;;;;5004349;28;20423;-71
2021/04/12 13:29:05;;;;;;;4.00;3.80;;;14.70;45.10;;;;;;5001078;28;20872;-71
2021/04/12 13:31:51;;;;;;;3.80;3.60;;;14.10;44.80;;;;;;4997039;28;20530;-72
2021/04/12 13:34:25;;;;;;;5.13;3.90;;;13.70;46.20;;;;;;5003015;28;20486;-70
2021/04/12 13:36:57;;;;;;;4.50;3.90;;;13.50;46.40;;;;;;5001871;28;21272;-72
2021/04/12 13:39:46;;;;;;;4.53;3.53;;;13.30;46.00;;;;;;4998871;28;20437;-71
2021/04/12 13:42:23;;;;;;;4.00;3.80;;;13.40;46.80;;;;;;5004078;28;20566;-72
2021/04/12 13:45:01;;;;;;;7.47;4.50;;;13.20;46.10;;;;;;4992072;28;20450;-70
2021/04/12 13:47:42;;;;;;;8.07;4.37;;;13.00;46.90;;;;;;5009035;28;20411;-71
2021/04/12 13:50:29;;;;;;;3.73;3.37;;;12.80;47.30;;;;;;5001956;28;21225;-72
2021/04/12 13:53:04;;;;;;;3.30;3.10;;;12.80;46.50;;;;;;4994969;28;20444;-73
2021/04/12 13:55:45;;;;;;;3.53;3.23;;;13.70;46.80;;;;;;5003403;28;20474;-73
2021/04/12 13:58:16;;;;;;;3.83;3.53;;;13.90;45.20;;;;;;4996893;28;20475;-70
2021/04/12 14:00:52;;;;;;;4.53;3.60;;;13.40;44.90;;;;;;5001191;28;20566;-71
2021/04/12 14:03:25;;;;;;;3.93;3.73;;;13.10;46.00;;;;;;5000934;28;20460;-71
2021/04/12 14:06:02;;;;;;;3.97;3.77;;;13.10;46.60;;;;;;4988584;28;20458;-71
2021/04/12 14:08:34;;;;;;;3.63;3.43;;;14.20;47.40;;;;;;4991487;28;20455;-72
2021/04/12 14:11:05;;;;;;;4.13;3.70;;;16.30;45.00;;;;;;5000448;28;20547;-72
2021/04/12 14:13:46;;;;;;;3.83;3.50;;;17.20;42.70;;;;;;4998333;28;20538;-71
2021/04/12 14:16:21;;;;;;;4.00;3.70;;;16.80;41.00;;;;;;4999543;28;20951;-72
2021/04/12 14:19:08;;;;;;;3.53;3.27;;;15.60;41.80;;;;;;4990926;28;20526;-70
2021/04/12 14:21:44;;;;;;;3.33;3.03;;;14.80;42.50;;;;;;5006229;28;20550;-70
2021/04/12 14:24:22;;;;;;;3.23;3.03;;;14.20;44.10;;;;;;5005761;28;20458;-71
2021/04/12 14:26:52;;;;;;;3.70;3.50;;;13.70;46.50;;;;;;5008038;28;20426;-71
2021/04/12 14:29:31;;;;;;;3.70;3.50;;;13.20;47.80;;;;;;5003614;28;20578;-71
2021/04/12 14:32:22;;;;;;;4.27;3.87;;;12.80;48.60;;;;;;4991615;28;21003;-71
2021/04/12 14:34:54;;;;;;;3.67;3.40;;;12.50;49.60;;;;;;5004334;28;20460;-74